Time;durP1;ratioP1;P1;durP2;ratioP2;P2;SDS_P1;SDS_P2;PMS_P1;PMS_P2;Temp;Humidity;BMP_temperature;BMP_pressure;BME280_temperature;BME280_humidity;BME280_pressure;Samples;Min_cycle;Max_cycle;Signal;HPM_P1;HPM_P2
2021/12/27 00:00:18;;;;;;;20.03;16.87;;;9.10;99.90;;;;;;5075670;28;20190;-79
2021/12/27 00:02:47;;;;;;;26.30;18.43;;;9.10;99.90;;;;;;5075608;28;20198;-81
2021/12/27 00:05:15;;;;;;;24.53;17.47;;;9.20;99.90;;;;;;5075290;28;20244;-80
2021/12/27 00:07:43;;;;;;;24.50;17.33;;;9.20;99.90;;;;;;5075414;28;20217;-82
2021/12/27 00:10:13;;;;;;;23.23;16.63;;;9.30;99.90;;;;;;5075444;28;20197;-81
2021/12/27 00:12:40;;;;;;;21.13;17.10;;;9.40;99.90;;;;;;5075669;28;20545;-81
2021/12/27 00:15:07;;;;;;;26.13;17.10;;;9.30;99.90;;;;;;5075138;28;20225;-81
2021/12/27 00:17:34;;;;;;;23.83;17.43;;;9.30;99.90;;;;;;5075413;28;20220;-83
2021/12/27 00:20:03;;;;;;;29.00;18.73;;;9.20;99.90;;;;;;5075135;28;20208;-80
2021/12/27 00:22:30;;;;;;;22.93;17.30;;;9.30;99.90;;;;;;5076668;28;20202;-83
2021/12/27 00:24:57;;;;;;;25.17;18.13;;;9.20;99.90;;;;;;5076062;28;20224;-81
2021/12/27 00:27:24;;;;;;;23.67;18.10;;;9.20;99.90;;;;;;5075187;28;20197;-81
2021/12/27 00:29:52;;;;;;;24.70;17.77;;;9.10;99.90;;;;;;5075203;28;20612;-79
2021/12/27 00:32:19;;;;;;;26.17;18.60;;;9.10;99.90;;;;;;5075266;28;20221;-81
2021/12/27 00:34:46;;;;;;;22.30;17.97;;;9.10;99.90;;;;;;5075123;28;20664;-84
2021/12/27 00:37:14;;;;;;;29.43;18.77;;;9.20;99.90;;;;;;5074955;28;20206;-81
2021/12/27 00:39:41;;;;;;;21.30;17.93;;;9.20;99.90;;;;;;5075012;28;20597;-83
2021/12/27 00:42:08;;;;;;;28.80;18.67;;;9.10;99.90;;;;;;5074870;28;20194;-80
2021/12/27 00:44:35;;;;;;;26.37;17.80;;;9.20;99.90;;;;;;5074699;28;20226;-83
2021/12/27 00:47:02;;;;;;;22.57;17.30;;;9.10;99.90;;;;;;5075006;28;20676;-81
2021/12/27 00:49:29;;;;;;;23.50;18.67;;;9.10;99.90;;;;;;5074892;28;20230;-84
2021/12/27 00:51:56;;;;;;;25.00;18.20;;;9.10;99.90;;;;;;5074437;28;20209;-80
2021/12/27 00:54:24;;;;;;;26.83;17.90;;;9.30;99.90;;;;;;5074925;28;20267;-83
2021/12/27 00:56:51;;;;;;;27.65;23.00;;;9.20;99.90;;;;;;5073486;28;20439;-84
2021/12/27 00:59:18;;;;;;;26.37;18.80;;;9.40;99.90;;;;;;5074659;28;20190;-80
2021/12/27 01:01:44;;;;;;;25.13;18.23;;;9.40;99.90;;;;;;5074557;28;20190;-81
2021/12/27 01:04:11;;;;;;;28.00;19.20;;;9.40;99.90;;;;;;5074525;28;20633;-82
2021/12/27 01:06:38;;;;;;;23.67;17.50;;;9.40;99.90;;;;;;5074117;28;20236;-82
2021/12/27 01:09:05;;;;;;;26.00;18.10;;;9.30;99.90;;;;;;5074827;28;20201;-83
2021/12/27 01:11:45;;;;;;;25.77;18.33;;;9.30;99.90;;;;;;5074402;28;20217;-81
2021/12/27 01:14:14;;;;;;;25.23;17.77;;;9.20;99.90;;;;;;5074559;28;20197;-81
2021/12/27 01:16:44;;;;;;;24.23;17.10;;;9.40;99.90;;;;;;5074025;28;20259;-80
2021/12/27 01:19:12;;;;;;;23.83;17.70;;;9.30;99.90;;;;;;5072657;28;20627;-82
2021/12/27 01:21:38;;;;;;;26.47;18.43;;;9.30;99.90;;;;;;5074268;28;20212;-80
2021/12/27 01:24:06;;;;;;;29.10;18.63;;;9.30;99.90;;;;;;5073915;28;20205;-81
2021/12/27 01:26:34;;;;;;;27.77;19.00;;;9.30;99.90;;;;;;5074058;28;20304;-82
2021/12/27 01:29:01;;;;;;;23.03;17.50;;;9.40;99.90;;;;;;5074215;28;20205;-80
2021/12/27 01:31:29;;;;;;;23.27;17.83;;;9.30;99.90;;;;;;5073641;28;20665;-81
2021/12/27 01:33:56;;;;;;;24.90;17.27;;;9.30;99.90;;;;;;5073702;28;20657;-83
2021/12/27 01:36:23;;;;;;;28.50;18.63;;;9.30;99.90;;;;;;5074063;28;20288;-83
2021/12/27 01:38:50;;;;;;;26.40;18.23;;;9.40;99.90;;;;;;5073784;28;20194;-83
2021/12/27 01:41:18;;;;;;;26.30;18.73;;;9.30;99.90;;;;;;5072906;28;20208;-82
2021/12/27 01:43:47;;;;;;;27.33;18.57;;;9.30;99.90;;;;;;5073801;28;20219;-84
2021/12/27 01:46:16;;;;;;;25.97;18.80;;;9.40;99.90;;;;;;5073772;28;20240;-83
2021/12/27 01:48:45;;;;;;;23.70;18.63;;;9.40;99.90;;;;;;5073424;28;20229;-85
2021/12/27 01:51:17;;;;;;;25.00;18.07;;;9.40;99.90;;;;;;5073726;28;20202;-85
2021/12/27 01:53:46;;;;;;;30.60;18.13;;;9.40;99.90;;;;;;5073821;28;20213;-83
2021/12/27 01:56:15;;;;;;;26.17;18.33;;;9.40;99.90;;;;;;5073708;28;20186;-83
2021/12/27 01:58:42;;;;;;;26.03;18.03;;;9.40;99.90;;;;;;5073711;28;20274;-84
2021/12/27 02:01:12;;;;;;;29.03;17.93;;;9.50;99.90;;;;;;5073753;28;20220;-82
2021/12/27 02:03:41;;;;;;;28.43;18.27;;;9.50;99.90;;;;;;5072573;28;20214;-81
2021/12/27 02:06:09;;;;;;;24.58;16.98;;;9.30;99.90;;;;;;5073417;28;20405;-83
2021/12/27 02:08:38;;;;;;;28.67;18.23;;;9.30;99.90;;;;;;5073770;28;20186;-84
2021/12/27 02:11:06;;;;;;;27.90;18.63;;;9.40;99.90;;;;;;5073603;28;20210;-83
2021/12/27 02:13:36;;;;;;;26.47;18.10;;;9.50;99.90;;;;;;5073374;28;20190;-83
2021/12/27 02:16:06;;;;;;;27.33;18.10;;;9.60;99.90;;;;;;5073369;28;20217;-84
2021/12/27 02:18:35;;;;;;;30.57;18.53;;;9.60;99.90;;;;;;5072583;28;20206;-82
2021/12/27 02:21:04;;;;;;;27.63;18.53;;;9.60;99.90;;;;;;5073394;28;20233;-83
2021/12/27 02:23:31;;;;;;;30.07;19.70;;;9.50;99.90;;;;;;5072922;28;20544;-87
2021/12/27 02:25:58;;;;;;;31.33;19.03;;;9.60;99.90;;;;;;5072960;28;20234;-81
2021/12/27 02:28:24;;;;;;;32.63;20.00;;;9.60;99.90;;;;;;5072705;28;20194;-82
2021/12/27 02:30:54;;;;;;;32.40;20.20;;;9.60;99.90;;;;;;5072814;28;20205;-83
2021/12/27 02:33:21;;;;;;;31.83;19.50;;;9.60;99.90;;;;;;5072887;28;20190;-81
2021/12/27 02:35:50;;;;;;;37.40;20.90;;;9.50;99.90;;;;;;5072739;28;20198;-82
2021/12/27 02:38:21;;;;;;;35.73;19.77;;;9.40;99.90;;;;;;5072470;28;20198;-81
2021/12/27 02:40:51;;;;;;;33.53;20.13;;;9.40;99.90;;;;;;5072783;28;20209;-81
2021/12/27 02:43:19;;;;;;;38.30;20.47;;;9.40;99.90;;;;;;5072528;28;20205;-81
2021/12/27 02:45:49;;;;;;;33.37;20.27;;;9.30;99.90;;;;;;5072497;28;20229;-83
2021/12/27 02:48:17;;;;;;;41.03;20.83;;;9.50;99.90;;;;;;5072189;28;20237;-81
2021/12/27 02:50:45;;;;;;;36.37;21.07;;;9.60;99.90;;;;;;5072754;28;20202;-84
2021/12/27 02:53:13;;;;;;;31.33;20.50;;;9.60;99.90;;;;;;5072781;28;20201;-81
2021/12/27 02:55:42;;;;;;;30.60;19.97;;;9.60;99.90;;;;;;5072523;28;20209;-80
2021/12/27 02:58:10;;;;;;;30.40;20.93;;;9.60;99.90;;;;;;5073017;28;20200;-81
2021/12/27 03:00:39;;;;;;;39.43;21.13;;;9.60;99.90;;;;;;5072566;28;20196;-82
2021/12/27 03:03:06;;;;;;;32.63;19.47;;;9.60;99.90;;;;;;5072543;28;20209;-81
2021/12/27 03:05:34;;;;;;;31.27;19.80;;;9.60;99.90;;;;;;5072598;28;20610;-81
2021/12/27 03:08:01;;;;;;;32.00;20.17;;;9.60;99.90;;;;;;5072717;28;20214;-81
2021/12/27 03:10:30;;;;;;;31.90;20.23;;;9.70;99.90;;;;;;5073794;28;20668;-82
2021/12/27 03:13:00;;;;;;;30.93;20.03;;;9.60;99.90;;;;;;5071960;28;20220;-80
2021/12/27 03:15:27;;;;;;;29.80;20.17;;;9.60;99.90;;;;;;5070530;28;20634;-82
2021/12/27 03:17:55;;;;;;;30.23;19.50;;;9.50;99.90;;;;;;5076067;28;20213;-81
2021/12/27 03:20:25;;;;;;;36.33;21.43;;;9.50;99.90;;;;;;5076514;28;20212;-83
2021/12/27 03:22:52;;;;;;;31.90;20.87;;;9.60;99.90;;;;;;5076017;28;20206;-81
2021/12/27 03:25:22;;;;;;;36.17;20.47;;;9.50;99.90;;;;;;5076246;28;20546;-84
2021/12/27 03:27:49;;;;;;;33.23;20.17;;;9.50;99.90;;;;;;5076240;28;20208;-83
2021/12/27 03:30:21;;;;;;;32.47;20.70;;;9.50;99.90;;;;;;5075830;28;20201;-83
2021/12/27 03:32:48;;;;;;;33.63;21.43;;;9.50;99.90;;;;;;5076262;28;20201;-82
2021/12/27 03:35:25;;;;;;;33.77;21.73;;;9.50;99.90;;;;;;5076000;28;20196;-81
2021/12/27 03:37:53;;;;;;;36.40;21.43;;;9.50;99.90;;;;;;5076458;28;20641;-82
2021/12/27 03:40:21;;;;;;;36.80;21.13;;;9.50;99.90;;;;;;5076885;28;20280;-82
2021/12/27 03:42:50;;;;;;;31.10;20.50;;;9.40;99.90;;;;;;5077183;28;20202;-80
2021/12/27 03:45:20;;;;;;;41.50;21.27;;;9.40;99.90;;;;;;5076819;28;20202;-82
2021/12/27 03:47:47;;;;;;;40.03;22.43;;;9.50;99.90;;;;;;5077272;28;20194;-83
2021/12/27 03:50:14;;;;;;;34.27;22.27;;;9.60;99.90;;;;;;5077671;28;20747;-82
2021/12/27 03:52:41;;;;;;;37.63;22.47;;;9.40;99.90;;;;;;5076958;28;20216;-82
2021/12/27 03:55:09;;;;;;;36.00;23.03;;;9.30;99.90;;;;;;5077358;28;20202;-84
2021/12/27 03:57:38;;;;;;;38.43;22.57;;;9.30;99.90;;;;;;5077074;28;20206;-83
2021/12/27 04:00:27;;;;;;;43.30;22.97;;;9.60;99.90;;;;;;5076064;28;20193;-85
2021/12/27 04:02:57;;;;;;;36.83;24.17;;;9.50;99.90;;;;;;5076003;28;20570;-84
2021/12/27 04:05:25;;;;;;;40.80;22.53;;;9.30;99.90;;;;;;5076064;28;20194;-82
2021/12/27 04:07:59;;;;;;;48.10;22.27;;;9.30;99.90;;;;;;5075986;28;20190;-84
2021/12/27 04:10:27;;;;;;;37.03;21.70;;;9.40;99.90;;;;;;5075948;28;20556;-83
2021/12/27 04:12:54;;;;;;;38.27;21.37;;;9.40;99.90;;;;;;5075448;28;20315;-85
2021/12/27 04:15:21;;;;;;;36.50;21.63;;;9.40;99.90;;;;;;5075526;28;20205;-83
2021/12/27 04:17:49;;;;;;;41.90;21.23;;;9.40;99.90;;;;;;5075431;28;20217;-82
2021/12/27 04:20:17;;;;;;;41.50;21.23;;;9.30;99.90;;;;;;5075358;28;20562;-84
2021/12/27 04:22:44;;;;;;;38.13;21.73;;;9.10;99.90;;;;;;5075663;28;20202;-83
2021/12/27 04:25:10;;;;;;;34.87;19.90;;;9.10;99.90;;;;;;5075552;28;20574;-86
2021/12/27 04:27:38;;;;;;;43.60;22.60;;;9.10;99.90;;;;;;5075065;28;20226;-83
2021/12/27 04:30:07;;;;;;;47.67;24.07;;;9.10;99.90;;;;;;5075759;28;20216;-82
2021/12/27 04:32:34;;;;;;;50.70;30.85;;;9.00;99.90;;;;;;5089863;28;20453;-84
2021/12/27 04:35:00;;;;;;;47.70;27.67;;;8.90;99.90;;;;;;5094647;28;20209;-82
2021/12/27 04:37:29;;;;;;;52.47;27.27;;;8.90;99.90;;;;;;5094894;28;20213;-84
2021/12/27 04:39:56;;;;;;;49.13;27.97;;;8.90;99.90;;;;;;5095938;28;20227;-83
2021/12/27 04:42:23;;;;;;;52.43;27.43;;;8.90;99.90;;;;;;5094074;28;20633;-82
2021/12/27 04:44:50;;;;;;;48.83;26.77;;;9.00;99.90;;;;;;5095888;28;20197;-82
2021/12/27 04:47:18;;;;;;;51.20;24.67;;;9.00;99.90;;;;;;5095621;28;20232;-83
2021/12/27 04:49:45;;;;;;;52.73;25.37;;;8.90;99.90;;;;;;5095489;28;20225;-82
2021/12/27 04:52:12;;;;;;;51.23;24.97;;;8.90;99.90;;;;;;5095501;28;20200;-84
2021/12/27 04:54:41;;;;;;;42.93;22.77;;;8.90;99.90;;;;;;5095408;28;20206;-83
2021/12/27 04:57:08;;;;;;;41.57;22.03;;;8.90;99.90;;;;;;5094914;28;20672;-83
2021/12/27 04:59:35;;;;;;;43.13;22.20;;;9.00;99.90;;;;;;5095573;28;20575;-86
2021/12/27 05:02:03;;;;;;;41.37;21.17;;;9.00;99.90;;;;;;5095238;28;20197;-83
2021/12/27 05:04:30;;;;;;;34.60;20.03;;;9.10;99.90;;;;;;5095347;28;20228;-83
2021/12/27 05:06:57;;;;;;;36.13;19.97;;;9.10;99.90;;;;;;5095003;28;20217;-84
2021/12/27 05:09:23;;;;;;;41.08;25.95;;;9.10;99.90;;;;;;5093963;28;20430;-82
2021/12/27 05:11:52;;;;;;;33.07;20.87;;;9.10;99.90;;;;;;5094991;28;20204;-84
2021/12/27 05:14:18;;;;;;;32.60;17.50;;;9.10;99.90;;;;;;5094799;28;20679;-84
2021/12/27 05:16:45;;;;;;;28.50;16.23;;;9.20;99.90;;;;;;5094679;28;20220;-84
2021/12/27 05:19:12;;;;;;;30.83;17.00;;;9.20;99.90;;;;;;5094983;28;20205;-84
2021/12/27 05:21:39;;;;;;;22.00;15.07;;;9.30;99.90;;;;;;5094520;28;20292;-83
2021/12/27 05:24:07;;;;;;;25.70;14.23;;;9.30;99.90;;;;;;5094511;28;20536;-84
2021/12/27 05:26:34;;;;;;;23.03;14.57;;;9.30;99.90;;;;;;5094234;28;20220;-82
2021/12/27 05:29:02;;;;;;;23.27;13.83;;;9.30;99.90;;;;;;5094721;28;20211;-81
2021/12/27 05:31:29;;;;;;;20.57;13.03;;;9.30;99.90;;;;;;5094500;28;20201;-84
2021/12/27 05:33:55;;;;;;;22.70;12.87;;;9.30;99.90;;;;;;5094609;28;20190;-85
2021/12/27 05:36:22;;;;;;;25.90;13.13;;;9.40;99.90;;;;;;5094466;28;20672;-83
2021/12/27 05:38:49;;;;;;;21.60;14.13;;;9.40;99.90;;;;;;5093582;28;20636;-82
2021/12/27 05:41:16;;;;;;;21.43;12.07;;;9.50;99.90;;;;;;5094148;28;20201;-82
2021/12/27 05:43:43;;;;;;;19.43;12.33;;;9.40;99.90;;;;;;5093964;28;20231;-81
2021/12/27 05:46:11;;;;;;;21.23;15.35;;;9.40;99.90;;;;;;5093345;28;20438;-83
2021/12/27 05:48:38;;;;;;;18.43;12.63;;;9.40;99.90;;;;;;5093913;28;20225;-83
2021/12/27 05:51:05;;;;;;;49.00;35.97;;;9.50;99.90;;;;;;5093670;28;20208;-81
2021/12/27 05:53:32;;;;;;;19.73;11.80;;;9.60;99.90;;;;;;5093739;28;20197;-82
2021/12/27 05:55:58;;;;;;;16.17;10.63;;;9.40;99.90;;;;;;5093549;28;20201;-83
2021/12/27 05:58:26;;;;;;;15.03;9.97;;;9.40;99.90;;;;;;5093922;28;20676;-81
2021/12/27 06:00:53;;;;;;;15.57;10.57;;;9.50;99.90;;;;;;5089515;28;20202;-83
2021/12/27 06:03:21;;;;;;;19.47;10.43;;;9.40;99.90;;;;;;5092671;28;20205;-86
2021/12/27 06:05:49;;;;;;;15.77;10.30;;;9.40;99.90;;;;;;5092458;28;20206;-84
2021/12/27 06:08:16;;;;;;;16.33;9.87;;;9.40;99.90;;;;;;5093494;28;20232;-82
2021/12/27 06:10:42;;;;;;;15.40;9.80;;;9.30;99.90;;;;;;5092861;28;20220;-84
2021/12/27 06:13:09;;;;;;;14.10;9.27;;;9.30;99.90;;;;;;5093332;28;20201;-87
2021/12/27 06:15:36;;;;;;;16.17;9.43;;;9.30;99.90;;;;;;5093548;28;20205;-83
2021/12/27 06:18:03;;;;;;;13.87;9.00;;;9.40;99.90;;;;;;5093248;28;20214;-82
2021/12/27 06:20:31;;;;;;;12.37;8.83;;;9.40;99.90;;;;;;5093502;28;20201;-84
2021/12/27 06:22:59;;;;;;;16.08;10.90;;;9.30;99.90;;;;;;5092847;28;20441;-84
2021/12/27 06:25:27;;;;;;;16.70;9.20;;;9.50;99.90;;;;;;5093584;28;20193;-86
2021/12/27 06:27:54;;;;;;;16.30;9.37;;;9.50;99.90;;;;;;5093372;28;20221;-84
2021/12/27 06:30:21;;;;;;;10.70;8.63;;;9.50;99.90;;;;;;5093468;28;20211;-84
2021/12/27 06:32:49;;;;;;;14.53;8.87;;;9.50;99.90;;;;;;5093448;28;20233;-84
2021/12/27 06:35:17;;;;;;;13.53;9.37;;;9.40;99.90;;;;;;5093782;28;20197;-82
2021/12/27 06:37:48;;;;;;;13.37;8.67;;;9.40;99.90;;;;;;5093507;28;20201;-83
2021/12/27 06:40:17;;;;;;;13.57;8.53;;;9.20;99.90;;;;;;5093302;28;20193;-80
2021/12/27 06:42:45;;;;;;;12.77;8.47;;;9.30;99.90;;;;;;5093529;28;20186;-83
2021/12/27 06:45:13;;;;;;;11.60;8.60;;;9.30;99.90;;;;;;5093304;28;20204;-82
2021/12/27 06:47:40;;;;;;;11.87;8.47;;;9.30;99.90;;;;;;5093339;28;20225;-82
2021/12/27 06:50:09;;;;;;;13.30;8.87;;;9.40;99.90;;;;;;5092810;28;20597;-82
2021/12/27 06:52:38;;;;;;;11.30;8.03;;;9.40;99.90;;;;;;5093019;28;20274;-83
2021/12/27 06:55:09;;;;;;;11.17;8.00;;;9.40;99.90;;;;;;5092617;28;20185;-82
2021/12/27 06:57:36;;;;;;;14.90;8.80;;;9.30;99.90;;;;;;5093211;28;20217;-81
2021/12/27 07:00:06;;;;;;;14.67;8.70;;;9.40;99.90;;;;;;5092950;28;20201;-82
2021/12/27 07:02:34;;;;;;;10.43;8.13;;;9.30;99.90;;;;;;5093123;28;20189;-81
2021/12/27 07:05:01;;;;;;;12.43;7.57;;;9.20;99.90;;;;;;5092845;28;20204;-82
2021/12/27 07:07:28;;;;;;;11.27;8.77;;;9.20;99.90;;;;;;5092689;28;20228;-83
2021/12/27 07:09:54;;;;;;;11.17;9.03;;;9.00;99.90;;;;;;5092964;28;20551;-84
2021/12/27 07:12:23;;;;;;;15.93;9.07;;;8.90;99.90;;;;;;5093700;28;20209;-85
2021/12/27 07:14:50;;;;;;;16.57;8.87;;;8.90;99.90;;;;;;5092953;28;20197;-87
2021/12/27 07:17:17;;;;;;;15.87;9.23;;;8.90;99.90;;;;;;5092917;28;20217;-86
2021/12/27 07:19:44;;;;;;;10.43;9.00;;;8.80;99.90;;;;;;5092802;28;20212;-84
2021/12/27 07:22:11;;;;;;;14.90;8.80;;;8.90;99.90;;;;;;5092996;28;20205;-86
2021/12/27 07:24:38;;;;;;;12.47;9.30;;;8.90;99.90;;;;;;5092961;28;20209;-87
2021/12/27 07:27:05;;;;;;;15.97;9.50;;;8.90;99.90;;;;;;5092954;28;20236;-86
2021/12/27 07:29:33;;;;;;;10.90;8.90;;;9.00;99.90;;;;;;5093133;28;20205;-85
2021/12/27 07:32:00;;;;;;;11.37;9.23;;;9.00;99.90;;;;;;5093143;28;20196;-84
2021/12/27 07:34:27;;;;;;;14.77;10.00;;;9.00;99.90;;;;;;5091835;28;20209;-86
2021/12/27 07:36:55;;;;;;;15.98;12.73;;;9.10;99.90;;;;;;5091879;28;20445;-83
2021/12/27 07:39:24;;;;;;;14.03;10.73;;;9.30;99.90;;;;;;5092769;28;20193;-84
2021/12/27 07:41:51;;;;;;;16.07;10.77;;;9.30;99.90;;;;;;5093165;28;20251;-86
2021/12/27 07:44:18;;;;;;;15.87;10.00;;;9.20;99.90;;;;;;5092857;28;20204;-83
2021/12/27 07:46:47;;;;;;;13.90;9.60;;;9.30;99.90;;;;;;5091614;28;20623;-86
2021/12/27 07:49:19;;;;;;;12.63;9.77;;;9.40;99.90;;;;;;5092761;28;20228;-84
2021/12/27 07:51:48;;;;;;;14.40;10.03;;;9.30;99.90;;;;;;5090087;28;20209;-85
2021/12/27 07:54:17;;;;;;;15.60;10.00;;;9.40;99.90;;;;;;5078460;28;20547;-84
2021/12/27 07:56:45;;;;;;;12.30;9.30;;;9.40;99.90;;;;;;5075259;28;20194;-86
2021/12/27 07:59:15;;;;;;;14.43;10.83;;;9.50;99.90;;;;;;5072808;28;20210;-84
2021/12/27 08:01:49;;;;;;;15.00;10.50;;;9.50;99.90;;;;;;5072740;28;20201;-86
2021/12/27 08:04:17;;;;;;;19.60;10.67;;;9.40;99.90;;;;;;5076481;28;20205;-85
2021/12/27 08:06:45;;;;;;;16.40;10.13;;;9.50;99.90;;;;;;5075830;28;20212;-84
2021/12/27 08:09:12;;;;;;;15.80;9.97;;;9.50;99.90;;;;;;5076406;28;20190;-86
2021/12/27 08:11:40;;;;;;;16.73;10.53;;;9.60;99.90;;;;;;5076533;28;20216;-84
2021/12/27 08:14:09;;;;;;;17.03;10.93;;;9.60;99.90;;;;;;5076225;28;20194;-84
2021/12/27 08:16:36;;;;;;;19.40;10.70;;;9.40;99.90;;;;;;5076196;28;20218;-84
2021/12/27 08:19:10;;;;;;;16.47;10.53;;;9.50;99.90;;;;;;5076899;28;20238;-83
2021/12/27 08:21:38;;;;;;;16.67;10.00;;;9.60;99.90;;;;;;5077221;28;20209;-85
2021/12/27 08:24:08;;;;;;;14.70;10.37;;;9.50;99.90;;;;;;5076025;28;20209;-83
2021/12/27 08:26:35;;;;;;;16.73;10.30;;;9.60;99.90;;;;;;5076376;28;20201;-86
2021/12/27 08:29:07;;;;;;;15.90;10.53;;;9.70;99.90;;;;;;5076050;28;20218;-84
2021/12/27 08:31:37;;;;;;;18.10;10.70;;;9.70;99.90;;;;;;5075974;28;20206;-84
2021/12/27 08:34:11;;;;;;;14.83;9.87;;;9.60;99.90;;;;;;5075912;28;20209;-87
2021/12/27 08:36:39;;;;;;;16.50;9.37;;;9.60;99.90;;;;;;5075888;28;20202;-85
2021/12/27 08:39:09;;;;;;;14.90;9.90;;;9.70;99.90;;;;;;5075846;28;20212;-83
2021/12/27 08:41:36;;;;;;;15.30;10.17;;;9.70;99.90;;;;;;5076136;28;20209;-83
2021/12/27 08:44:05;;;;;;;13.97;9.90;;;9.60;99.90;;;;;;5075655;28;20218;-83
2021/12/27 08:46:32;;;;;;;13.70;9.30;;;9.60;99.90;;;;;;5075893;28;20201;-83
2021/12/27 08:48:59;;;;;;;14.57;9.27;;;9.50;99.90;;;;;;5075671;28;20233;-83
2021/12/27 08:51:27;;;;;;;12.43;8.77;;;9.50;99.90;;;;;;5075307;28;20680;-82
2021/12/27 08:53:56;;;;;;;12.30;8.63;;;9.50;99.90;;;;;;5075778;28;20575;-83
2021/12/27 08:56:23;;;;;;;13.07;9.20;;;9.50;99.90;;;;;;5080988;28;20201;-86
2021/12/27 08:58:50;;;;;;;12.47;9.37;;;9.60;99.90;;;;;;5075715;28;20209;-85
2021/12/27 09:01:18;;;;;;;11.63;8.73;;;9.70;99.90;;;;;;5094014;28;20193;-84
2021/12/27 09:03:46;;;;;;;8.47;7.50;;;9.60;99.90;;;;;;5095382;28;20196;-84
2021/12/27 09:06:15;;;;;;;11.53;8.70;;;9.60;99.90;;;;;;5095284;28;20205;-84
2021/12/27 09:08:47;;;;;;;13.90;8.43;;;9.80;99.90;;;;;;5095320;28;20237;-83
2021/12/27 09:11:19;;;;;;;12.90;8.73;;;9.90;99.90;;;;;;5095602;28;20254;-84
2021/12/27 09:13:47;;;;;;;11.97;7.70;;;9.90;99.90;;;;;;5095186;28;20205;-84
2021/12/27 09:16:19;;;;;;;7.50;6.80;;;9.90;99.90;;;;;;5095223;28;20209;-83
2021/12/27 09:18:48;;;;;;;9.93;8.00;;;9.90;99.90;;;;;;5095529;28;20216;-84
2021/12/27 09:21:15;;;;;;;12.07;7.37;;;10.00;99.90;;;;;;5095129;28;20205;-85
2021/12/27 09:23:45;;;;;;;9.70;7.33;;;10.00;99.90;;;;;;5095326;28;20212;-85
2021/12/27 09:26:12;;;;;;;9.67;8.20;;;10.10;99.90;;;;;;5094344;28;20197;-86
2021/12/27 09:28:39;;;;;;;11.30;7.30;;;10.10;99.90;;;;;;5095261;28;20220;-84
2021/12/27 09:31:09;;;;;;;9.13;6.87;;;10.20;99.90;;;;;;5086102;27;20205;-85
2021/12/27 09:33:42;;;;;;;8.60;7.40;;;10.30;99.90;;;;;;5083114;28;20186;-85
2021/12/27 09:36:09;;;;;;;10.77;7.27;;;10.30;99.90;;;;;;5075439;28;20318;-84
2021/12/27 09:38:36;;;;;;;9.67;6.97;;;10.20;99.90;;;;;;5074382;28;20615;-84
2021/12/27 09:41:04;;;;;;;10.57;7.27;;;10.20;99.90;;;;;;5074460;28;20202;-83
2021/12/27 09:43:32;;;;;;;8.43;6.83;;;10.10;99.90;;;;;;5074241;28;20216;-84
2021/12/27 09:46:00;;;;;;;7.40;6.33;;;10.20;99.90;;;;;;5074322;28;20209;-84
2021/12/27 09:48:27;;;;;;;7.50;6.37;;;10.20;99.90;;;;;;5073653;28;20308;-83
2021/12/27 09:50:56;;;;;;;8.93;6.63;;;10.10;99.90;;;;;;5073074;28;20213;-83
2021/12/27 09:53:23;;;;;;;10.37;6.87;;;10.20;99.90;;;;;;5074189;28;20222;-84
2021/12/27 09:55:51;;;;;;;7.30;6.67;;;10.30;99.90;;;;;;5073932;28;20206;-85
2021/12/27 09:58:20;;;;;;;7.00;6.30;;;10.40;99.90;;;;;;5073912;28;20206;-79
2021/12/27 10:00:49;;;;;;;8.10;6.63;;;10.30;99.90;;;;;;5073711;28;20203;-83
2021/12/27 10:03:17;;;;;;;7.20;6.50;;;10.30;99.90;;;;;;5072927;28;20655;-84
2021/12/27 10:05:45;;;;;;;8.77;6.20;;;10.50;99.90;;;;;;5073858;28;20328;-84
2021/12/27 10:08:13;;;;;;;6.70;6.10;;;10.70;99.90;;;;;;5074146;28;20225;-86
2021/12/27 10:10:47;;;;;;;7.67;6.67;;;10.80;99.90;;;;;;5074173;28;20190;-86
2021/12/27 10:13:26;;;;;;;7.97;6.33;;;10.90;99.90;;;;;;5074157;28;20194;-86
2021/12/27 10:15:57;;;;;;;6.23;5.63;;;10.90;99.90;;;;;;5074259;28;20229;-86
2021/12/27 10:18:26;;;;;;;8.83;5.77;;;11.00;99.90;;;;;;5073948;28;20230;-86
2021/12/27 10:20:53;;;;;;;9.83;5.40;;;10.90;99.90;;;;;;5073254;28;20264;-83
2021/12/27 10:23:20;;;;;;;8.20;5.83;;;10.70;99.90;;;;;;5073765;28;20206;-82
2021/12/27 10:25:50;;;;;;;5.90;5.40;;;10.80;99.90;;;;;;5078137;28;20195;-82
2021/12/27 10:28:27;;;;;;;13.33;10.87;;;10.90;99.90;;;;;;5083965;28;20211;-82
2021/12/27 10:31:02;;;;;;;6.67;4.73;;;10.90;99.90;;;;;;5080799;28;20202;-81
2021/12/27 10:33:33;;;;;;;5.53;4.77;;;10.90;99.90;;;;;;5081316;28;20215;-86
2021/12/27 10:36:01;;;;;;;6.50;4.93;;;11.10;99.90;;;;;;5079863;28;20206;-86
2021/12/27 10:38:32;;;;;;;6.80;5.53;;;11.10;99.90;;;;;;5073296;28;20191;-85
2021/12/27 10:41:01;;;;;;;5.77;4.57;;;11.10;99.90;;;;;;5072695;28;20206;-85
2021/12/27 10:43:39;;;;;;;5.43;4.80;;;11.10;99.90;;;;;;5072714;28;20284;-84
2021/12/27 10:46:10;;;;;;;5.53;5.07;;;11.00;99.90;;;;;;5072102;28;20202;-85
2021/12/27 10:48:39;;;;;;;6.43;4.57;;;11.00;99.90;;;;;;5072509;28;20228;-84
2021/12/27 10:51:07;;;;;;;4.73;4.20;;;10.90;99.90;;;;;;5074947;28;20208;-83
2021/12/27 10:53:50;;;;;;;6.33;4.60;;;11.10;99.90;;;;;;5091207;28;20201;-84
2021/12/27 10:56:20;;;;;;;4.50;4.10;;;11.30;99.90;;;;;;5073665;28;20207;-82
2021/12/27 10:58:51;;;;;;;4.87;4.40;;;11.10;99.90;;;;;;5073155;28;20195;-84
2021/12/27 11:01:20;;;;;;;6.23;3.97;;;11.00;99.90;;;;;;5072912;28;20290;-83
2021/12/27 11:03:50;;;;;;;3.83;3.53;;;11.10;99.90;;;;;;5073148;28;20195;-82
2021/12/27 11:06:25;;;;;;;15.47;12.47;;;11.20;99.90;;;;;;5073473;28;20189;-81
2021/12/27 11:08:55;;;;;;;6.10;3.70;;;11.30;99.90;;;;;;5073107;28;20234;-82
2021/12/27 11:11:25;;;;;;;3.70;3.40;;;11.30;99.90;;;;;;5072976;28;20202;-83
2021/12/27 11:13:56;;;;;;;3.70;3.40;;;11.40;99.90;;;;;;5072525;28;20210;-82
2021/12/27 11:16:26;;;;;;;6.00;3.50;;;11.40;99.90;;;;;;5072430;28;20199;-84
2021/12/27 11:18:53;;;;;;;4.10;3.63;;;11.30;99.90;;;;;;5072681;28;20297;-84
2021/12/27 11:21:24;;;;;;;7.30;3.57;;;11.30;99.90;;;;;;5073114;28;20212;-84
2021/12/27 11:23:53;;;;;;;6.20;4.70;;;11.30;99.90;;;;;;5072061;28;20420;-83
2021/12/27 11:26:24;;;;;;;4.27;3.83;;;11.40;99.90;;;;;;5073159;28;20209;-84
2021/12/27 11:28:51;;;;;;;4.47;3.60;;;11.40;99.90;;;;;;5072761;28;20220;-83
2021/12/27 11:31:28;;;;;;;6.20;3.77;;;11.40;99.90;;;;;;5073225;28;20207;-84
2021/12/27 11:34:02;;;;;;;7.77;3.53;;;11.30;99.90;;;;;;5073517;28;20253;-82
2021/12/27 11:36:32;;;;;;;6.60;3.87;;;11.30;99.90;;;;;;5073235;28;20230;-83
2021/12/27 11:39:18;;;;;;;4.77;3.90;;;11.30;99.90;;;;;;5077237;28;20194;-86
2021/12/27 11:41:56;;;;;;;6.00;3.57;;;11.30;99.90;;;;;;5076938;28;20201;-84
2021/12/27 11:44:39;;;;;;;6.97;4.10;;;11.40;99.90;;;;;;5077046;28;20203;-83
2021/12/27 11:47:10;;;;;;;5.37;3.77;;;11.40;99.90;;;;;;5077070;28;20197;-84
2021/12/27 11:50:00;;;;;;;5.80;4.00;;;11.50;99.90;;;;;;5075529;28;20244;-83
2021/12/27 11:52:34;;;;;;;5.27;3.97;;;11.60;99.90;;;;;;5076767;28;20644;-83
2021/12/27 11:55:15;;;;;;;6.17;4.30;;;11.60;99.90;;;;;;5076759;28;20291;-82
2021/12/27 11:57:56;;;;;;;6.90;4.20;;;11.40;99.90;;;;;;5076163;28;20274;-87
2021/12/27 12:00:39;;;;;;;4.80;3.57;;;11.50;99.90;;;;;;5076340;28;20208;-84
2021/12/27 12:03:16;;;;;;;5.93;4.03;;;11.60;99.90;;;;;;5087000;28;20217;-87
2021/12/27 12:05:47;;;;;;;5.97;3.97;;;11.60;99.90;;;;;;5076430;28;20650;-88
2021/12/27 12:08:17;;;;;;;6.10;4.13;;;11.40;99.90;;;;;;5075539;28;20263;-88
2021/12/27 12:11:10;;;;;;;9.43;4.50;;;11.40;99.90;;;;;;5076753;28;20208;-89
2021/12/27 12:13:41;;;;;;;7.37;4.30;;;11.40;99.90;;;;;;5076354;28;20666;-87
2021/12/27 12:16:12;;;;;;;5.77;4.43;;;11.40;99.90;;;;;;5076778;28;20216;-87
2021/12/27 12:18:44;;;;;;;5.53;4.10;;;11.60;99.90;;;;;;5076333;28;20221;-86
2021/12/27 12:21:52;;;;;;;6.57;4.77;;;11.50;99.90;;;;;;5075200;28;20202;-87
2021/12/27 12:24:22;;;;;;;6.20;4.47;;;11.50;99.90;;;;;;5077169;28;20282;-88
2021/12/27 12:26:54;;;;;;;8.67;4.10;;;11.40;99.90;;;;;;5076659;28;20216;-88
2021/12/27 12:29:24;;;;;;;7.73;4.93;;;11.50;99.90;;;;;;5080656;28;20229;-85
2021/12/27 12:31:56;;;;;;;7.67;4.30;;;11.50;99.90;;;;;;5082221;28;20535;-89
2021/12/27 12:34:29;;;;;;;7.20;4.30;;;11.60;99.90;;;;;;5079294;28;20201;-86
2021/12/27 12:37:00;;;;;;;7.73;3.63;;;11.70;99.90;;;;;;5079146;28;20654;-89
2021/12/27 12:39:39;;;;;;;7.28;4.53;;;11.70;99.90;;;;;;5077538;28;20428;-85
2021/12/27 12:42:11;;;;;;;8.87;4.50;;;12.00;99.90;;;;;;5076404;28;20204;-85
2021/12/27 12:44:58;;;;;;;6.13;4.60;;;11.90;99.90;;;;;;5085060;28;20219;-85
2021/12/27 12:47:35;;;;;;;7.90;4.40;;;11.90;99.90;;;;;;5092313;28;20263;-84
2021/12/27 12:50:14;;;;;;;10.17;4.37;;;12.00;99.90;;;;;;5082734;28;20232;-84